sensor_id;sensor_type;location;lat;lon;timestamp;pressure;altitude;pressure_sealevel;temperature;humidity
32456;BME280;18912;43.270;27.942;2023-03-16T00:01:14;97083.38;;;14.18;72.04
32456;BME280;18912;43.270;27.942;2023-03-16T00:03:39;97088.94;;;14.06;72.24
32456;BME280;18912;43.270;27.942;2023-03-16T00:06:05;97089.91;;;14.17;71.83
32456;BME280;18912;43.270;27.942;2023-03-16T00:08:31;97095.06;;;14.18;71.60
32456;BME280;18912;43.270;27.942;2023-03-16T00:10:56;97082.63;;;14.00;71.72
32456;BME280;18912;43.270;27.942;2023-03-16T00:13:23;97088.38;;;14.04;71.60
32456;BME280;18912;43.270;27.942;2023-03-16T00:15:53;97086.03;;;14.13;71.01
32456;BME280;18912;43.270;27.942;2023-03-16T00:18:20;97076.81;;;14.14;71.04
32456;BME280;18912;43.270;27.942;2023-03-16T00:20:50;97086.31;;;13.89;71.50
32456;BME280;18912;43.270;27.942;2023-03-16T00:23:16;97086.69;;;13.76;72.10
32456;BME280;18912;43.270;27.942;2023-03-16T00:25:41;97087.31;;;13.83;72.62
32456;BME280;18912;43.270;27.942;2023-03-16T00:28:07;97089.81;;;14.12;71.60
32456;BME280;18912;43.270;27.942;2023-03-16T00:30:32;97097.03;;;14.23;71.28
32456;BME280;18912;43.270;27.942;2023-03-16T00:32:58;97096.38;;;14.32;70.90
32456;BME280;18912;43.270;27.942;2023-03-16T00:35:24;97095.44;;;14.48;70.31
32456;BME280;18912;43.270;27.942;2023-03-16T00:37:49;97096.56;;;14.52;69.64
32456;BME280;18912;43.270;27.942;2023-03-16T00:40:15;97100.91;;;14.53;69.98
32456;BME280;18912;43.270;27.942;2023-03-16T00:42:41;97094.53;;;14.64;69.60
32456;BME280;18912;43.270;27.942;2023-03-16T00:45:07;97092.28;;;14.61;69.50
32456;BME280;18912;43.270;27.942;2023-03-16T00:47:34;97101.25;;;14.57;69.48
32456;BME280;18912;43.270;27.942;2023-03-16T00:50:00;97098.34;;;14.68;69.40
32456;BME280;18912;43.270;27.942;2023-03-16T00:52:27;97092.66;;;14.70;69.33
32456;BME280;18912;43.270;27.942;2023-03-16T00:54:53;97096.25;;;14.75;69.08
32456;BME280;18912;43.270;27.942;2023-03-16T00:57:20;97094.88;;;14.73;68.93
32456;BME280;18912;43.270;27.942;2023-03-16T00:59:47;97094.34;;;14.76;68.74
32456;BME280;18912;43.270;27.942;2023-03-16T01:02:14;97101.13;;;14.73;69.00
32456;BME280;18912;43.270;27.942;2023-03-16T01:04:40;97092.72;;;14.75;68.98
32456;BME280;18912;43.270;27.942;2023-03-16T01:07:07;97089.47;;;14.78;68.79
32456;BME280;18912;43.270;27.942;2023-03-16T01:09:33;97093.47;;;14.70;68.98
32456;BME280;18912;43.270;27.942;2023-03-16T01:12:05;97102.56;;;14.54;69.48
32456;BME280;18912;43.270;27.942;2023-03-16T01:14:33;97090.91;;;14.59;69.36
32456;BME280;18912;43.270;27.942;2023-03-16T01:16:59;97087.94;;;14.60;69.09
32456;BME280;18912;43.270;27.942;2023-03-16T01:19:25;97093.63;;;14.59;69.02
32456;BME280;18912;43.270;27.942;2023-03-16T01:21:50;97093.22;;;14.72;68.81
32456;BME280;18912;43.270;27.942;2023-03-16T01:24:16;97098.97;;;14.75;68.40
32456;BME280;18912;43.270;27.942;2023-03-16T01:26:42;97094.59;;;14.74;68.31
32456;BME280;18912;43.270;27.942;2023-03-16T01:29:07;97100.09;;;14.79;68.29
32456;BME280;18912;43.270;27.942;2023-03-16T01:31:33;97104.19;;;14.82;67.91
32456;BME280;18912;43.270;27.942;2023-03-16T01:33:58;97104.97;;;14.77;68.00
32456;BME280;18912;43.270;27.942;2023-03-16T01:36:25;97100.91;;;14.80;68.36
32456;BME280;18912;43.270;27.942;2023-03-16T01:38:50;97097.06;;;14.76;67.62
32456;BME280;18912;43.270;27.942;2023-03-16T01:41:16;97101.63;;;14.70;67.50
32456;BME280;18912;43.270;27.942;2023-03-16T01:43:41;97111.13;;;14.68;67.47
32456;BME280;18912;43.270;27.942;2023-03-16T01:46:18;97112.00;;;14.73;67.49
32456;BME280;18912;43.270;27.942;2023-03-16T01:48:52;97109.59;;;14.77;67.42
32456;BME280;18912;43.270;27.942;2023-03-16T01:51:55;97126.09;;;14.70;67.56
32456;BME280;18912;43.270;27.942;2023-03-16T01:57:15;97130.25;;;14.78;67.48
32456;BME280;18912;43.270;27.942;2023-03-16T01:59:47;97123.19;;;14.77;67.52
32456;BME280;18912;43.270;27.942;2023-03-16T02:02:19;97125.50;;;14.63;67.91
32456;BME280;18912;43.270;27.942;2023-03-16T02:07:24;97138.94;;;14.75;67.60
32456;BME280;18912;43.270;27.942;2023-03-16T02:09:55;97130.59;;;14.81;67.58
32456;BME280;18912;43.270;27.942;2023-03-16T02:12:22;97125.72;;;14.83;67.36
32456;BME280;18912;43.270;27.942;2023-03-16T02:14:48;97127.31;;;14.79;67.45
32456;BME280;18912;43.270;27.942;2023-03-16T02:17:15;97127.53;;;14.78;67.24
32456;BME280;18912;43.270;27.942;2023-03-16T02:22:13;97130.38;;;14.61;67.73
32456;BME280;18912;43.270;27.942;2023-03-16T02:24:39;97127.97;;;14.65;67.76
32456;BME280;18912;43.270;27.942;2023-03-16T02:27:06;97133.34;;;14.60;67.90
32456;BME280;18912;43.270;27.942;2023-03-16T02:29:50;97132.59;;;14.64;67.55
32456;BME280;18912;43.270;27.942;2023-03-16T02:32:18;97135.53;;;14.63;67.72
32456;BME280;18912;43.270;27.942;2023-03-16T02:34:45;97138.78;;;14.60;67.58
32456;BME280;18912;43.270;27.942;2023-03-16T02:37:10;97147.78;;;14.60;67.84
32456;BME280;18912;43.270;27.942;2023-03-16T02:39:36;97150.25;;;14.62;67.68
32456;BME280;18912;43.270;27.942;2023-03-16T02:42:03;97157.13;;;14.69;67.76
32456;BME280;18912;43.270;27.942;2023-03-16T02:44:34;97156.59;;;14.72;67.86
32456;BME280;18912;43.270;27.942;2023-03-16T02:47:05;97159.13;;;14.79;67.48
32456;BME280;18912;43.270;27.942;2023-03-16T02:49:35;97152.25;;;14.71;67.63
32456;BME280;18912;43.270;27.942;2023-03-16T02:52:02;97153.00;;;14.67;68.00
32456;BME280;18912;43.270;27.942;2023-03-16T02:54:27;97154.97;;;14.71;67.79
32456;BME280;18912;43.270;27.942;2023-03-16T02:56:53;97143.88;;;14.78;67.62
32456;BME280;18912;43.270;27.942;2023-03-16T02:59:18;97151.25;;;14.82;67.44
32456;BME280;18912;43.270;27.942;2023-03-16T03:01:44;97157.88;;;14.91;67.11
32456;BME280;18912;43.270;27.942;2023-03-16T03:04:10;97159.44;;;14.82;67.38
32456;BME280;18912;43.270;27.942;2023-03-16T03:06:35;97155.69;;;14.88;67.50
32456;BME280;18912;43.270;27.942;2023-03-16T03:09:01;97153.84;;;14.67;68.27
32456;BME280;18912;43.270;27.942;2023-03-16T03:11:27;97139.94;;;14.42;69.27
32456;BME280;18912;43.270;27.942;2023-03-16T03:13:54;97167.38;;;14.62;69.21
32456;BME280;18912;43.270;27.942;2023-03-16T03:16:19;97156.59;;;14.72;68.68
32456;BME280;18912;43.270;27.942;2023-03-16T03:18:46;97159.28;;;14.67;68.96
32456;BME280;18912;43.270;27.942;2023-03-16T03:21:11;97164.72;;;14.67;68.83
32456;BME280;18912;43.270;27.942;2023-03-16T03:23:37;97172.41;;;14.75;68.81
32456;BME280;18912;43.270;27.942;2023-03-16T03:26:02;97166.81;;;14.87;68.35
32456;BME280;18912;43.270;27.942;2023-03-16T03:28:29;97172.59;;;14.95;68.28
32456;BME280;18912;43.270;27.942;2023-03-16T03:30:55;97171.47;;;14.91;68.12
32456;BME280;18912;43.270;27.942;2023-03-16T03:33:21;97183.66;;;14.84;68.26
32456;BME280;18912;43.270;27.942;2023-03-16T03:35:52;97177.34;;;14.78;68.27
32456;BME280;18912;43.270;27.942;2023-03-16T03:38:17;97191.06;;;14.88;68.35
32456;BME280;18912;43.270;27.942;2023-03-16T03:40:43;97184.22;;;14.86;68.21
32456;BME280;18912;43.270;27.942;2023-03-16T03:43:08;97191.09;;;14.93;67.84
32456;BME280;18912;43.270;27.942;2023-03-16T03:45:34;97199.81;;;14.95;68.07
32456;BME280;18912;43.270;27.942;2023-03-16T03:48:00;97200.38;;;14.97;68.07
32456;BME280;18912;43.270;27.942;2023-03-16T03:50:25;97198.44;;;14.93;68.30
32456;BME280;18912;43.270;27.942;2023-03-16T03:52:51;97211.84;;;14.99;68.47
32456;BME280;18912;43.270;27.942;2023-03-16T03:55:16;97208.59;;;15.02;68.42
32456;BME280;18912;43.270;27.942;2023-03-16T03:57:42;97205.78;;;14.92;69.09
32456;BME280;18912;43.270;27.942;2023-03-16T04:00:09;97217.41;;;15.10;68.42
32456;BME280;18912;43.270;27.942;2023-03-16T04:02:36;97214.16;;;15.13;68.38
32456;BME280;18912;43.270;27.942;2023-03-16T04:05:03;97213.56;;;15.11;68.36
32456;BME280;18912;43.270;27.942;2023-03-16T04:07:28;97215.59;;;14.93;68.86
32456;BME280;18912;43.270;27.942;2023-03-16T04:09:54;97219.84;;;15.11;68.44
32456;BME280;18912;43.270;27.942;2023-03-16T04:12:19;97226.34;;;15.10;68.41
32456;BME280;18912;43.270;27.942;2023-03-16T04:14:44;97228.84;;;15.12;68.44
32456;BME280;18912;43.270;27.942;2023-03-16T04:17:10;97234.84;;;15.14;68.40
32456;BME280;18912;43.270;27.942;2023-03-16T04:19:36;97232.91;;;15.09;68.47
32456;BME280;18912;43.270;27.942;2023-03-16T04:22:02;97234.53;;;15.10;68.53
32456;BME280;18912;43.270;27.942;2023-03-16T04:24:27;97235.75;;;14.97;68.89
32456;BME280;18912;43.270;27.942;2023-03-16T04:26:53;97241.81;;;15.05;68.79
32456;BME280;18912;43.270;27.942;2023-03-16T04:29:18;97236.03;;;14.96;68.83
32456;BME280;18912;43.270;27.942;2023-03-16T04:31:44;97243.19;;;14.80;69.03
32456;BME280;18912;43.270;27.942;2023-03-16T04:34:10;97243.63;;;14.94;68.91
32456;BME280;18912;43.270;27.942;2023-03-16T04:36:36;97254.31;;;15.01;68.23
32456;BME280;18912;43.270;27.942;2023-03-16T04:39:03;97251.03;;;14.98;68.07
32456;BME280;18912;43.270;27.942;2023-03-16T04:41:29;97255.91;;;14.96;67.96
32456;BME280;18912;43.270;27.942;2023-03-16T04:43:54;97255.03;;;14.91;68.13
32456;BME280;18912;43.270;27.942;2023-03-16T04:46:22;97264.81;;;14.92;67.99
32456;BME280;18912;43.270;27.942;2023-03-16T04:48:47;97269.00;;;14.99;67.77
32456;BME280;18912;43.270;27.942;2023-03-16T04:51:13;97267.03;;;14.95;67.91
32456;BME280;18912;43.270;27.942;2023-03-16T04:53:39;97270.09;;;14.98;67.57
32456;BME280;18912;43.270;27.942;2023-03-16T04:56:05;97265.97;;;14.96;67.48
32456;BME280;18912;43.270;27.942;2023-03-16T04:58:31;97269.75;;;14.95;67.35
32456;BME280;18912;43.270;27.942;2023-03-16T05:00:57;97270.25;;;14.92;67.33
32456;BME280;18912;43.270;27.942;2023-03-16T05:03:22;97269.56;;;15.02;67.15
32456;BME280;18912;43.270;27.942;2023-03-16T05:05:48;97268.94;;;14.94;67.21
32456;BME280;18912;43.270;27.942;2023-03-16T05:08:14;97273.97;;;15.08;67.14
32456;BME280;18912;43.270;27.942;2023-03-16T05:10:40;97275.63;;;15.09;66.78
32456;BME280;18912;43.270;27.942;2023-03-16T05:13:06;97275.88;;;15.07;66.86
32456;BME280;18912;43.270;27.942;2023-03-16T05:15:32;97291.94;;;15.09;66.84
32456;BME280;18912;43.270;27.942;2023-03-16T05:17:58;97279.91;;;15.05;66.79
32456;BME280;18912;43.270;27.942;2023-03-16T05:20:24;97286.50;;;15.09;66.76
32456;BME280;18912;43.270;27.942;2023-03-16T05:22:50;97287.28;;;15.04;67.02
32456;BME280;18912;43.270;27.942;2023-03-16T05:25:17;97293.16;;;15.18;66.18
32456;BME280;18912;43.270;27.942;2023-03-16T05:27:48;97300.19;;;15.14;66.25
32456;BME280;18912;43.270;27.942;2023-03-16T05:30:15;97307.13;;;15.05;66.44
32456;BME280;18912;43.270;27.942;2023-03-16T05:32:41;97308.78;;;14.84;66.44
32456;BME280;18912;43.270;27.942;2023-03-16T05:35:07;97311.91;;;14.92;66.14
32456;BME280;18912;43.270;27.942;2023-03-16T05:37:36;97305.38;;;14.93;65.78
32456;BME280;18912;43.270;27.942;2023-03-16T05:40:04;97287.47;;;14.76;65.99
32456;BME280;18912;43.270;27.942;2023-03-16T05:42:38;97302.09;;;14.91;65.71
32456;BME280;18912;43.270;27.942;2023-03-16T05:45:04;97309.50;;;14.96;65.82
32456;BME280;18912;43.270;27.942;2023-03-16T05:47:30;97308.66;;;14.95;65.86
32456;BME280;18912;43.270;27.942;2023-03-16T05:49:55;97306.47;;;14.92;65.93
32456;BME280;18912;43.270;27.942;2023-03-16T05:52:21;97311.59;;;14.89;66.24
32456;BME280;18912;43.270;27.942;2023-03-16T05:54:46;97310.25;;;14.91;66.35
32456;BME280;18912;43.270;27.942;2023-03-16T05:57:12;97297.47;;;14.92;66.14
32456;BME280;18912;43.270;27.942;2023-03-16T05:59:37;97317.44;;;15.02;66.13
32456;BME280;18912;43.270;27.942;2023-03-16T06:02:03;97312.09;;;15.08;65.91
32456;BME280;18912;43.270;27.942;2023-03-16T06:04:28;97315.31;;;15.05;66.04
32456;BME280;18912;43.270;27.942;2023-03-16T06:06:54;97329.28;;;15.13;65.80
32456;BME280;18912;43.270;27.942;2023-03-16T06:09:19;97323.41;;;15.21;65.35
32456;BME280;18912;43.270;27.942;2023-03-16T06:11:44;97322.56;;;15.21;65.22
32456;BME280;18912;43.270;27.942;2023-03-16T06:14:10;97319.88;;;14.99;65.80
32456;BME280;18912;43.270;27.942;2023-03-16T06:16:35;97332.63;;;15.20;65.38
32456;BME280;18912;43.270;27.942;2023-03-16T06:19:01;97340.81;;;15.42;64.63
32456;BME280;18912;43.270;27.942;2023-03-16T06:21:26;97340.94;;;15.52;63.98
32456;BME280;18912;43.270;27.942;2023-03-16T06:23:52;97338.81;;;15.59;63.97
32456;BME280;18912;43.270;27.942;2023-03-16T06:26:18;97344.09;;;15.44;64.37
32456;BME280;18912;43.270;27.942;2023-03-16T06:28:43;97349.03;;;15.47;64.58
32456;BME280;18912;43.270;27.942;2023-03-16T06:31:09;97347.47;;;15.56;64.56
32456;BME280;18912;43.270;27.942;2023-03-16T06:33:35;97346.00;;;15.43;65.74
32456;BME280;18912;43.270;27.942;2023-03-16T06:36:00;97349.13;;;15.57;65.69
32456;BME280;18912;43.270;27.942;2023-03-16T06:38:26;97358.09;;;15.31;66.88
32456;BME280;18912;43.270;27.942;2023-03-16T06:40:52;97357.84;;;15.11;68.13
32456;BME280;18912;43.270;27.942;2023-03-16T06:43:18;97360.84;;;15.36;67.38
32456;BME280;18912;43.270;27.942;2023-03-16T06:45:43;97351.84;;;15.35;67.32
32456;BME280;18912;43.270;27.942;2023-03-16T06:48:09;97368.72;;;15.32;67.57
32456;BME280;18912;43.270;27.942;2023-03-16T06:50:35;97365.59;;;15.24;67.98
32456;BME280;18912;43.270;27.942;2023-03-16T06:53:01;97377.72;;;15.33;67.85
32456;BME280;18912;43.270;27.942;2023-03-16T06:55:26;97376.66;;;15.39;67.71
32456;BME280;18912;43.270;27.942;2023-03-16T06:57:52;97379.69;;;15.16;68.50
32456;BME280;18912;43.270;27.942;2023-03-16T07:00:17;97386.63;;;15.07;68.98
32456;BME280;18912;43.270;27.942;2023-03-16T07:02:43;97392.94;;;14.69;70.06
32456;BME280;18912;43.270;27.942;2023-03-16T07:05:09;97385.69;;;14.58;71.14
32456;BME280;18912;43.270;27.942;2023-03-16T07:07:41;97396.03;;;14.39;72.21
32456;BME280;18912;43.270;27.942;2023-03-16T07:10:15;97396.81;;;14.23;72.60
32456;BME280;18912;43.270;27.942;2023-03-16T07:12:42;97404.16;;;14.06;73.81
32456;BME280;18912;43.270;27.942;2023-03-16T07:15:08;97410.09;;;14.03;73.26
32456;BME280;18912;43.270;27.942;2023-03-16T07:17:35;97406.09;;;13.77;74.14
32456;BME280;18912;43.270;27.942;2023-03-16T07:20:00;97415.06;;;13.78;74.36
32456;BME280;18912;43.270;27.942;2023-03-16T07:22:29;97421.84;;;13.92;74.07
32456;BME280;18912;43.270;27.942;2023-03-16T07:24:55;97417.41;;;14.02;73.36
32456;BME280;18912;43.270;27.942;2023-03-16T07:27:23;97423.66;;;14.20;72.41
32456;BME280;18912;43.270;27.942;2023-03-16T07:29:49;97432.63;;;13.59;73.81
32456;BME280;18912;43.270;27.942;2023-03-16T07:32:16;97438.28;;;13.29;75.21
32456;BME280;18912;43.270;27.942;2023-03-16T07:34:42;97433.72;;;13.58;74.37
32456;BME280;18912;43.270;27.942;2023-03-16T07:37:07;97435.91;;;13.61;73.79
32456;BME280;18912;43.270;27.942;2023-03-16T07:39:34;97436.41;;;13.58;73.58
32456;BME280;18912;43.270;27.942;2023-03-16T07:41:59;97444.72;;;13.40;74.80
32456;BME280;18912;43.270;27.942;2023-03-16T07:44:26;97441.03;;;13.18;75.89
32456;BME280;18912;43.270;27.942;2023-03-16T07:46:51;97440.06;;;13.63;74.22
32456;BME280;18912;43.270;27.942;2023-03-16T07:49:17;97442.72;;;13.47;74.61
32456;BME280;18912;43.270;27.942;2023-03-16T07:51:42;97449.97;;;13.30;75.62
32456;BME280;18912;43.270;27.942;2023-03-16T07:54:08;97443.47;;;13.31;75.19
32456;BME280;18912;43.270;27.942;2023-03-16T07:56:33;97451.34;;;13.44;74.52
32456;BME280;18912;43.270;27.942;2023-03-16T07:58:59;97458.84;;;13.13;75.60
32456;BME280;18912;43.270;27.942;2023-03-16T08:01:26;97457.91;;;13.08;75.82
32456;BME280;18912;43.270;27.942;2023-03-16T08:03:51;97466.75;;;13.55;74.54
32456;BME280;18912;43.270;27.942;2023-03-16T08:06:17;97472.22;;;13.43;74.51
32456;BME280;18912;43.270;27.942;2023-03-16T08:08:43;97472.06;;;12.98;75.71
32456;BME280;18912;43.270;27.942;2023-03-16T08:11:09;97463.75;;;13.28;74.56
32456;BME280;18912;43.270;27.942;2023-03-16T08:13:34;97475.13;;;13.25;74.64
32456;BME280;18912;43.270;27.942;2023-03-16T08:15:59;97479.13;;;13.11;74.35
32456;BME280;18912;43.270;27.942;2023-03-16T08:18:29;97481.38;;;13.02;75.49
32456;BME280;18912;43.270;27.942;2023-03-16T08:20:55;97487.16;;;13.18;75.32
32456;BME280;18912;43.270;27.942;2023-03-16T08:23:22;97484.53;;;12.99;75.72
32456;BME280;18912;43.270;27.942;2023-03-16T08:25:52;97479.03;;;13.18;75.19
32456;BME280;18912;43.270;27.942;2023-03-16T08:28:18;97484.22;;;13.07;74.99
32456;BME280;18912;43.270;27.942;2023-03-16T08:30:50;97484.78;;;12.86;75.87
32456;BME280;18912;43.270;27.942;2023-03-16T08:33:16;97494.69;;;13.39;74.10
32456;BME280;18912;43.270;27.942;2023-03-16T08:35:43;97492.09;;;13.32;74.32
32456;BME280;18912;43.270;27.942;2023-03-16T08:38:09;97497.25;;;13.34;74.43
32456;BME280;18912;43.270;27.942;2023-03-16T08:40:35;97500.28;;;13.49;73.66
32456;BME280;18912;43.270;27.942;2023-03-16T08:43:00;97512.59;;;13.40;73.49
32456;BME280;18912;43.270;27.942;2023-03-16T08:45:26;97503.75;;;12.63;76.28
32456;BME280;18912;43.270;27.942;2023-03-16T08:47:52;97501.41;;;13.25;74.77
32456;BME280;18912;43.270;27.942;2023-03-16T08:50:18;97504.59;;;13.45;73.66
32456;BME280;18912;43.270;27.942;2023-03-16T08:52:45;97514.25;;;13.52;72.96
32456;BME280;18912;43.270;27.942;2023-03-16T08:55:10;97510.03;;;13.73;72.33
32456;BME280;18912;43.270;27.942;2023-03-16T08:57:37;97505.78;;;13.37;72.80
32456;BME280;18912;43.270;27.942;2023-03-16T09:00:06;97511.22;;;12.91;74.61
32456;BME280;18912;43.270;27.942;2023-03-16T09:02:39;97513.09;;;13.37;73.15
32456;BME280;18912;43.270;27.942;2023-03-16T09:05:10;97513.63;;;13.62;72.42
32456;BME280;18912;43.270;27.942;2023-03-16T09:07:37;97520.00;;;13.56;71.83
32456;BME280;18912;43.270;27.942;2023-03-16T09:10:08;97524.56;;;13.67;72.19
32456;BME280;18912;43.270;27.942;2023-03-16T09:12:37;97521.94;;;13.72;71.50
32456;BME280;18912;43.270;27.942;2023-03-16T09:15:04;97523.53;;;13.56;72.38
32456;BME280;18912;43.270;27.942;2023-03-16T09:17:29;97525.91;;;13.53;72.21
32456;BME280;18912;43.270;27.942;2023-03-16T09:19:55;97530.31;;;13.42;72.74
32456;BME280;18912;43.270;27.942;2023-03-16T09:22:21;97525.91;;;13.53;72.13
32456;BME280;18912;43.270;27.942;2023-03-16T09:24:47;97529.94;;;13.50;72.53
32456;BME280;18912;43.270;27.942;2023-03-16T09:27:13;97535.97;;;13.52;72.61
32456;BME280;18912;43.270;27.942;2023-03-16T09:29:40;97531.88;;;13.03;74.33
32456;BME280;18912;43.270;27.942;2023-03-16T09:32:07;97541.16;;;12.96;74.33
32456;BME280;18912;43.270;27.942;2023-03-16T09:34:33;97537.78;;;13.24;73.84
32456;BME280;18912;43.270;27.942;2023-03-16T09:36:58;97545.34;;;13.22;73.66
32456;BME280;18912;43.270;27.942;2023-03-16T09:39:24;97546.69;;;13.59;72.12
32456;BME280;18912;43.270;27.942;2023-03-16T09:47:32;97560.28;;;13.36;72.81
32456;BME280;18912;43.270;27.942;2023-03-16T09:50:03;97564.22;;;13.68;71.57
32456;BME280;18912;43.270;27.942;2023-03-16T09:52:54;97558.41;;;13.36;72.62
32456;BME280;18912;43.270;27.942;2023-03-16T09:55:26;97564.66;;;13.37;72.42
32456;BME280;18912;43.270;27.942;2023-03-16T09:57:56;97561.03;;;13.20;72.73
32456;BME280;18912;43.270;27.942;2023-03-16T10:00:29;97558.72;;;13.63;71.50
32456;BME280;18912;43.270;27.942;2023-03-16T10:05:59;97559.69;;;13.22;72.52
32456;BME280;18912;43.270;27.942;2023-03-16T10:08:40;97572.56;;;13.38;72.29
32456;BME280;18912;43.270;27.942;2023-03-16T10:11:41;97571.72;;;13.38;72.35
32456;BME280;18912;43.270;27.942;2023-03-16T10:14:09;97580.78;;;13.66;71.61
32456;BME280;18912;43.270;27.942;2023-03-16T10:16:51;97576.94;;;13.04;73.46
32456;BME280;18912;43.270;27.942;2023-03-16T10:19:27;97585.19;;;13.33;73.10
32456;BME280;18912;43.270;27.942;2023-03-16T10:21:59;97572.44;;;13.45;72.86
32456;BME280;18912;43.270;27.942;2023-03-16T10:27:28;97574.34;;;13.33;72.31
32456;BME280;18912;43.270;27.942;2023-03-16T10:29:54;97588.28;;;13.87;70.47
32456;BME280;18912;43.270;27.942;2023-03-16T10:32:20;97585.41;;;12.96;73.27
32456;BME280;18912;43.270;27.942;2023-03-16T10:35:01;97576.31;;;13.49;71.59
32456;BME280;18912;43.270;27.942;2023-03-16T10:37:29;97588.75;;;13.22;72.63
32456;BME280;18912;43.270;27.942;2023-03-16T10:39:55;97580.28;;;13.81;70.44
32456;BME280;18912;43.270;27.942;2023-03-16T10:42:23;97582.72;;;13.54;70.94
32456;BME280;18912;43.270;27.942;2023-03-16T10:44:56;97580.25;;;13.30;71.62
32456;BME280;18912;43.270;27.942;2023-03-16T10:47:23;97590.59;;;13.56;71.32
32456;BME280;18912;43.270;27.942;2023-03-16T10:49:49;97576.19;;;13.67;71.29
32456;BME280;18912;43.270;27.942;2023-03-16T10:54:56;97569.09;;;13.66;69.73
32456;BME280;18912;43.270;27.942;2023-03-16T10:59:50;97582.78;;;13.71;69.84
32456;BME280;18912;43.270;27.942;2023-03-16T11:02:19;97590.69;;;13.72;70.07
32456;BME280;18912;43.270;27.942;2023-03-16T11:04:45;97584.66;;;13.70;70.20
32456;BME280;18912;43.270;27.942;2023-03-16T11:07:19;97587.75;;;13.51;70.84
32456;BME280;18912;43.270;27.942;2023-03-16T11:09:52;97586.56;;;13.70;70.12
32456;BME280;18912;43.270;27.942;2023-03-16T11:12:25;97584.75;;;13.75;69.65
32456;BME280;18912;43.270;27.942;2023-03-16T11:14:53;97583.09;;;13.86;69.31
32456;BME280;18912;43.270;27.942;2023-03-16T11:17:35;97584.84;;;13.92;68.84
32456;BME280;18912;43.270;27.942;2023-03-16T11:20:09;97592.50;;;13.95;69.14
32456;BME280;18912;43.270;27.942;2023-03-16T11:22:39;97594.91;;;14.48;67.43
32456;BME280;18912;43.270;27.942;2023-03-16T11:25:15;97581.41;;;14.25;67.18
32456;BME280;18912;43.270;27.942;2023-03-16T11:30:38;97579.47;;;14.08;67.93
32456;BME280;18912;43.270;27.942;2023-03-16T11:33:10;97595.56;;;13.98;68.19
32456;BME280;18912;43.270;27.942;2023-03-16T11:36:12;97591.94;;;14.21;67.50
32456;BME280;18912;43.270;27.942;2023-03-16T11:39:09;97593.16;;;14.14;68.02
32456;BME280;18912;43.270;27.942;2023-03-16T11:44:31;97581.19;;;13.98;67.14
32456;BME280;18912;43.270;27.942;2023-03-16T11:58:23;97607.03;;;14.40;66.21
32456;BME280;18912;43.270;27.942;2023-03-16T12:03:49;97612.06;;;14.48;65.70
32456;BME280;18912;43.270;27.942;2023-03-16T12:06:42;97618.69;;;14.69;65.30
32456;BME280;18912;43.270;27.942;2023-03-16T12:14:42;97617.31;;;14.38;65.25
32456;BME280;18912;43.270;27.942;2023-03-16T12:17:25;97617.31;;;14.27;65.05
32456;BME280;18912;43.270;27.942;2023-03-16T12:19:57;97625.03;;;14.30;64.84
32456;BME280;18912;43.270;27.942;2023-03-16T12:22:31;97627.03;;;14.34;65.43
32456;BME280;18912;43.270;27.942;2023-03-16T12:24:58;97635.25;;;14.51;64.88
32456;BME280;18912;43.270;27.942;2023-03-16T12:27:36;97634.13;;;14.35;65.60
32456;BME280;18912;43.270;27.942;2023-03-16T12:46:04;97645.72;;;14.19;66.51
32456;BME280;18912;43.270;27.942;2023-03-16T12:48:32;97637.34;;;14.32;66.08
32456;BME280;18912;43.270;27.942;2023-03-16T12:51:02;97640.22;;;14.70;65.07
32456;BME280;18912;43.270;27.942;2023-03-16T12:56:32;97642.22;;;14.07;67.34
32456;BME280;18912;43.270;27.942;2023-03-16T12:59:00;97647.06;;;14.05;67.56
32456;BME280;18912;43.270;27.942;2023-03-16T13:01:30;97649.16;;;14.26;66.44
32456;BME280;18912;43.270;27.942;2023-03-16T13:04:09;97648.81;;;14.23;67.09
32456;BME280;18912;43.270;27.942;2023-03-16T13:06:42;97652.22;;;14.18;66.73
32456;BME280;18912;43.270;27.942;2023-03-16T13:09:10;97657.13;;;14.44;66.41
32456;BME280;18912;43.270;27.942;2023-03-16T13:11:42;97658.66;;;14.00;67.28
32456;BME280;18912;43.270;27.942;2023-03-16T13:14:14;97662.50;;;13.76;66.83
32456;BME280;18912;43.270;27.942;2023-03-16T13:16:41;97667.00;;;14.34;66.11
32456;BME280;18912;43.270;27.942;2023-03-16T13:19:20;97668.22;;;14.54;65.21
32456;BME280;18912;43.270;27.942;2023-03-16T13:22:00;97667.63;;;14.52;64.61
32456;BME280;18912;43.270;27.942;2023-03-16T13:24:33;97674.88;;;14.47;65.46
32456;BME280;18912;43.270;27.942;2023-03-16T13:27:03;97676.66;;;14.41;65.76
32456;BME280;18912;43.270;27.942;2023-03-16T13:29:31;97679.75;;;14.33;65.70
32456;BME280;18912;43.270;27.942;2023-03-16T13:32:01;97684.03;;;14.06;66.39
32456;BME280;18912;43.270;27.942;2023-03-16T13:34:51;97682.53;;;13.87;66.56
32456;BME280;18912;43.270;27.942;2023-03-16T13:37:19;97686.59;;;13.61;66.77
32456;BME280;18912;43.270;27.942;2023-03-16T13:39:53;97695.56;;;13.39;67.95
32456;BME280;18912;43.270;27.942;2023-03-16T13:42:21;97689.19;;;13.45;67.28
32456;BME280;18912;43.270;27.942;2023-03-16T13:44:51;97698.28;;;13.39;68.10
32456;BME280;18912;43.270;27.942;2023-03-16T13:47:17;97711.50;;;13.47;68.32
32456;BME280;18912;43.270;27.942;2023-03-16T13:52:54;97712.78;;;13.44;66.17
32456;BME280;18912;43.270;27.942;2023-03-16T13:55:01;97700.16;;;13.73;65.15
32456;BME280;18912;43.270;27.942;2023-03-16T13:57:31;97709.38;;;13.72;65.07
32456;BME280;18912;43.270;27.942;2023-03-16T14:00:15;97715.28;;;13.69;65.47
32456;BME280;18912;43.270;27.942;2023-03-16T14:02:44;97715.38;;;13.97;64.42
32456;BME280;18912;43.270;27.942;2023-03-16T14:05:19;97718.94;;;13.74;64.40
32456;BME280;18912;43.270;27.942;2023-03-16T14:07:47;97722.59;;;13.57;64.34